RJOS(METAR)
10/21 04:00
METAR RJOS 201900Z 30008KT 9999 FEW030 12/11 Q1023 RMK 1CU030 A3021=
戻る
トップページへ戻る
IMOC Co,.Ltd.